Time;durP1;ratioP1;P1;durP2;ratioP2;P2;SDS_P1;SDS_P2;PMS_P1;PMS_P2;Temp;Humidity;BMP_temperature;BMP_pressure;BME280_temperature;BME280_humidity;BME280_pressure;Samples;Min_cycle;Max_cycle;Signal;HPM_P1;HPM_P2
2023/03/01 00:01:10;;;;;;;;;27.00;20.50;;;;;2.09;46.13;102454.66;4922518;28;45371;-75
2023/03/01 00:03:36;;;;;;;;;30.75;22.00;;;;;1.97;46.38;102433.69;4912740;28;45142;-72
2023/03/01 00:06:02;;;;;;;;;27.67;22.33;;;;;1.97;45.92;102436.28;4922997;28;45433;-71
2023/03/01 00:08:29;;;;;;;;;18.75;18.75;;;;;2.01;45.98;102459.22;4920672;28;45210;-72
2023/03/01 00:11:21;;;;;;;;;27.33;22.33;;;;;1.94;46.98;102451.69;4922582;28;45290;-72
2023/03/01 00:13:49;;;;;;;;;25.67;23.33;;;;;1.87;46.79;102447.63;4921818;28;45473;-72
2023/03/01 00:16:21;;;;;;;;;18.50;16.50;;;;;1.90;46.23;102452.19;4921718;28;45173;-72
2023/03/01 00:18:46;;;;;;;;;27.33;22.00;;;;;1.86;47.37;102452.72;4922082;28;45288;-72
2023/03/01 00:21:12;;;;;;;;;21.67;17.67;;;;;1.87;47.55;102462.34;4916663;28;45463;-72
2023/03/01 00:23:38;;;;;;;;;27.33;19.33;;;;;1.79;48.38;102457.41;4923295;28;45416;-72
2023/03/01 00:26:10;;;;;;;;;27.00;23.33;;;;;1.76;47.47;102448.38;4919286;28;45334;-72
2023/03/01 00:28:36;;;;;;;;;25.33;22.33;;;;;1.80;46.86;102455.72;4922364;28;46186;-74
2023/03/01 00:31:03;;;;;;;;;26.00;24.67;;;;;1.64;47.42;102431.69;4923214;28;45391;-74
2023/03/01 00:33:29;;;;;;;;;28.00;22.67;;;;;1.71;47.42;102449.69;4931218;28;46658;-74
2023/03/01 00:35:54;;;;;;;;;20.00;16.33;;;;;1.72;47.25;102451.53;4922672;28;50346;-74
2023/03/01 00:38:19;;;;;;;;;29.00;22.00;;;;;1.66;47.28;102444.09;4932368;28;52536;-74
2023/03/01 00:40:45;;;;;;;;;31.00;24.67;;;;;1.68;46.88;102449.41;4916189;28;45530;-74
2023/03/01 00:43:10;;;;;;;;;23.33;19.33;;;;;1.60;48.29;102440.00;4923115;28;45286;-74
2023/03/01 00:45:35;;;;;;;;;25.33;22.33;;;;;1.56;47.57;102442.34;4916034;28;46387;-74
2023/03/01 00:48:01;;;;;;;;;23.33;23.00;;;;;1.53;47.81;102438.59;4922738;28;45249;-74
2023/03/01 00:50:26;;;;;;;;;30.00;22.67;;;;;1.62;47.84;102456.72;4898973;28;45249;-74
2023/03/01 00:52:55;;;;;;;;;24.67;23.00;;;;;1.60;47.65;102451.38;4922389;28;45425;-74
2023/03/01 00:55:21;;;;;;;;;23.67;20.33;;;;;1.52;47.72;102447.19;4916542;28;45443;-74
2023/03/01 00:57:47;;;;;;;;;22.33;19.67;;;;;1.57;47.55;102453.72;4930440;28;45453;-74
2023/03/01 01:00:12;;;;;;;;;28.00;20.67;;;;;1.43;47.96;102431.69;4925035;28;45983;-74
2023/03/01 01:02:38;;;;;;;;;32.33;26.67;;;;;1.51;48.46;102460.97;4923236;28;45166;-74
2023/03/01 01:05:04;;;;;;;;;28.67;20.00;;;;;1.43;47.49;102449.91;4922225;28;51181;-74
2023/03/01 01:07:29;;;;;;;;;28.33;24.33;;;;;1.41;49.01;102438.44;4926502;28;45315;-74
2023/03/01 01:09:55;;;;;;;;;28.33;20.67;;;;;1.43;48.40;102447.31;4924329;28;45331;-74
2023/03/01 01:12:20;;;;;;;;;25.00;20.00;;;;;1.47;48.16;102449.38;4924338;28;45168;-74
2023/03/01 01:14:46;;;;;;;;;30.67;27.67;;;;;1.37;47.89;102430.22;4919472;28;49734;-74
2023/03/01 01:17:11;;;;;;;;;30.00;21.67;;;;;1.44;48.62;102446.50;4922555;28;44790;-74
2023/03/01 01:19:36;;;;;;;;;27.67;24.67;;;;;1.45;48.86;102450.94;4921436;28;45420;-74
2023/03/01 01:22:03;;;;;;;;;32.00;24.00;;;;;1.38;49.02;102439.88;4926892;28;45342;-74
2023/03/01 01:24:28;;;;;;;;;33.00;23.33;;;;;1.43;47.97;102436.88;4925182;28;46329;-74
2023/03/01 01:26:53;;;;;;;;;20.00;16.67;;;;;1.38;48.42;102432.06;4923083;28;45474;-74
2023/03/01 01:29:19;;;;;;;;;28.33;23.67;;;;;1.41;48.75;102437.53;4925958;28;45363;-74
2023/03/01 01:31:44;;;;;;;;;26.67;20.33;;;;;1.40;48.49;102430.47;4929259;28;45527;-74
2023/03/01 01:34:20;;;;;;;;;26.33;21.33;;;;;1.33;48.51;102427.34;4927559;28;45334;-72
2023/03/01 01:36:50;;;;;;;;;22.67;20.00;;;;;1.37;48.81;102431.13;4929294;28;45364;-72
2023/03/01 01:39:16;;;;;;;;;24.33;22.67;;;;;1.34;50.30;102437.00;4913448;28;45365;-72
2023/03/01 01:41:42;;;;;;;;;27.00;20.00;;;;;1.33;48.52;102427.34;4923018;28;45371;-72
2023/03/01 01:44:14;;;;;;;;;27.00;23.67;;;;;1.30;49.56;102429.69;4921146;28;45351;-72
2023/03/01 01:47:07;;;;;;;;;26.33;23.00;;;;;1.27;50.47;102421.59;4930683;28;45244;-72
2023/03/01 01:49:36;;;;;;;;;22.33;13.00;;;;;1.25;50.02;102420.53;4912232;28;45508;-72
2023/03/01 01:52:13;;;;;;;;;26.00;26.00;;;;;1.22;49.18;102420.28;4907077;28;46181;-72
2023/03/01 01:54:46;;;;;;;;;21.00;19.00;;;;;1.23;49.13;102416.91;4925541;28;45320;-73
2023/03/01 01:57:17;;;;;;;;;23.67;20.33;;;;;1.22;48.58;102419.38;4923856;28;45353;-73
2023/03/01 01:59:48;;;;;;;;;26.33;20.00;;;;;1.15;49.08;102406.56;4913679;28;45221;-72
2023/03/01 02:02:13;;;;;;;;;28.33;23.67;;;;;1.12;49.14;102399.41;4921916;28;45468;-73
2023/03/01 02:04:39;;;;;;;;;26.33;21.67;;;;;1.19;49.13;102416.50;4898586;28;47833;-72
2023/03/01 02:07:21;;;;;;;;;29.67;25.33;;;;;1.05;48.95;102397.06;4907395;28;45285;-72
2023/03/01 02:09:52;;;;;;;;;29.33;23.67;;;;;1.15;48.93;102409.16;4909708;28;45459;-72
2023/03/01 02:12:21;;;;;;;;;22.67;21.33;;;;;1.14;49.10;102409.97;4916508;28;45297;-72
2023/03/01 02:14:46;;;;;;;;;25.00;23.67;;;;;1.09;49.47;102410.50;4909843;28;45316;-72
2023/03/01 02:17:15;;;;;;;;;23.33;17.00;;;;;1.00;49.56;102396.63;4911247;28;45239;-72
2023/03/01 02:20:22;;;;;;;;;28.00;22.67;;;;;1.07;49.58;102398.09;4909892;28;45534;-72
2023/03/01 02:22:48;;;;;;;;;28.00;21.00;;;;;1.03;49.92;102388.19;4900170;28;45306;-72
2023/03/01 02:25:30;;;;;;;;;24.67;24.33;;;;;1.03;50.44;102394.28;4906677;28;45667;-72
2023/03/01 02:28:31;;;;;;;;;30.00;22.00;;;;;0.96;49.45;102385.84;4917203;28;45388;-72
2023/03/01 02:33:42;;;;;;;;;26.67;22.67;;;;;0.98;49.09;102392.06;4917144;28;45237;-73
2023/03/01 02:36:20;;;;;;;;;31.33;26.67;;;;;0.91;49.84;102380.22;4908899;28;45379;-73
2023/03/01 02:38:47;;;;;;;;;30.33;25.00;;;;;0.94;50.48;102389.97;4918703;28;45340;-73
2023/03/01 02:41:16;;;;;;;;;31.33;25.67;;;;;0.83;50.24;102370.81;4909622;28;45424;-72
2023/03/01 02:43:42;;;;;;;;;30.00;28.00;;;;;0.85;50.91;102380.59;4915081;28;46847;-73
2023/03/01 02:46:23;;;;;;;;;25.67;21.67;;;;;0.83;50.40;102371.72;4910977;28;46052;-72
2023/03/01 02:48:52;;;;;;;;;29.33;25.33;;;;;0.92;50.85;102384.63;4917875;28;45410;-72
2023/03/01 02:51:20;;;;;;;;;24.00;17.67;;;;;0.91;49.80;102380.22;4904599;28;45529;-72
2023/03/01 02:53:55;;;;;;;;;16.67;16.67;;;;;0.91;50.82;102380.22;4918520;28;45477;-72
2023/03/01 02:56:20;;;;;;;;;28.00;21.33;;;;;0.78;51.42;102359.97;4917230;28;45459;-72
2023/03/01 02:58:50;;;;;;;;;25.00;22.00;;;;;0.81;50.10;102356.72;4918411;28;45476;-72
2023/03/01 03:01:16;;;;;;;;;32.67;26.33;;;;;0.85;50.82;102369.25;4905287;28;45399;-72
2023/03/01 03:03:42;;;;;;;;;29.00;23.00;;;;;0.88;50.55;102374.72;4918808;28;45180;-72
2023/03/01 03:06:09;;;;;;;;;29.00;26.00;;;;;0.87;51.04;102365.13;4908057;28;46051;-72
2023/03/01 03:08:35;;;;;;;;;26.00;22.33;;;;;0.85;51.01;102361.44;4910366;28;45376;-72
2023/03/01 03:11:00;;;;;;;;;27.33;21.33;;;;;0.88;51.27;102369.53;4909114;28;45597;-72
2023/03/01 03:13:28;;;;;;;;;29.67;26.33;;;;;0.89;50.50;102363.53;4922148;28;45308;-72
2023/03/01 03:15:55;;;;;;;;;27.00;22.33;;;;;0.87;51.14;102362.50;4906638;28;45491;-72
2023/03/01 03:18:22;;;;;;;;;28.00;25.67;;;;;0.87;49.70;102363.41;4918519;28;44733;-72
2023/03/01 03:20:52;;;;;;;;;27.33;25.00;;;;;0.83;51.32;102355.19;4906360;28;45282;-72
2023/03/01 03:23:18;;;;;;;;;22.00;21.67;;;;;0.83;50.74;102353.50;4918868;28;45422;-72
2023/03/01 03:25:44;;;;;;;;;29.33;19.33;;;;;0.85;52.01;102361.44;4884324;28;48282;-72
2023/03/01 03:28:09;;;;;;;;;31.00;25.67;;;;;0.86;50.54;102364.16;4918991;28;45329;-72
2023/03/01 03:30:38;;;;;;;;;29.33;24.00;;;;;0.77;51.05;102352.97;4906342;28;45392;-72
2023/03/01 03:33:05;;;;;;;;;23.67;19.00;;;;;0.67;51.35;102332.09;4902405;28;45512;-72
2023/03/01 03:35:34;;;;;;;;;33.00;25.33;;;;;0.71;50.54;102342.00;4909339;28;46259;-72
2023/03/01 03:38:09;;;;;;;;;25.67;24.00;;;;;0.70;50.54;102344.47;4920084;28;45221;-72
2023/03/01 03:40:40;;;;;;;;;26.33;25.33;;;;;0.72;50.70;102361.13;4893254;28;45285;-72
2023/03/01 03:43:11;;;;;;;;;29.00;24.33;;;;;0.70;51.49;102362.69;4920489;28;45339;-72
2023/03/01 03:45:37;;;;;;;;;32.00;29.33;;;;;0.58;50.79;102336.50;4911046;28;46528;-72
2023/03/01 03:48:04;;;;;;;;;25.00;24.00;;;;;0.67;51.38;102347.69;4904789;28;45468;-72
2023/03/01 03:50:30;;;;;;;;;31.00;28.67;;;;;0.61;51.53;102341.97;4906735;28;45366;-71
2023/03/01 03:52:55;;;;;;;;;26.33;25.33;;;;;0.35;52.35;102300.63;4914276;28;45386;-72
2023/03/01 03:55:20;;;;;;;;;27.67;24.00;;;;;0.52;51.29;102325.53;4906355;28;45621;-72
2023/03/01 03:57:51;;;;;;;;;34.00;24.33;;;;;0.55;51.92;102328.41;4916594;28;45328;-72
2023/03/01 04:00:19;;;;;;;;;25.33;21.00;;;;;0.60;51.71;102341.06;4918558;28;45346;-72
2023/03/01 04:02:46;;;;;;;;;29.67;25.67;;;;;0.57;51.98;102332.97;4931789;28;45348;-72
2023/03/01 04:05:14;;;;;;;;;33.67;29.33;;;;;0.60;52.77;102343.66;4926963;28;45332;-72
2023/03/01 04:07:40;;;;;;;;;35.33;23.33;;;;;0.56;52.75;102332.81;4928442;28;45281;-72
2023/03/01 04:10:17;;;;;;;;;28.67;26.67;;;;;0.54;52.67;102332.72;4921805;28;45274;-72
2023/03/01 04:12:43;;;;;;;;;27.67;21.00;;;;;0.52;51.52;102328.16;4906527;28;46383;-72
2023/03/01 04:15:12;;;;;;;;;28.33;19.00;;;;;0.55;52.39;102337.13;4921956;28;45608;-73
2023/03/01 04:17:47;;;;;;;;;31.67;28.67;;;;;0.59;52.27;102344.44;4928350;28;45375;-73
2023/03/01 04:20:24;;;;;;;;;33.67;27.67;;;;;0.58;52.32;102342.59;4919387;28;45342;-72
2023/03/01 04:22:51;;;;;;;;;29.00;23.33;;;;;0.56;52.27;102340.63;4925918;28;45209;-72
2023/03/01 04:25:17;;;;;;;;;39.67;28.33;;;;;0.50;52.43;102330.59;4919982;28;45269;-72
2023/03/01 04:27:42;;;;;;;;;35.33;29.33;;;;;0.50;52.29;102325.38;4928339;28;45229;-72
2023/03/01 04:30:08;;;;;;;;;35.33;29.67;;;;;0.51;51.85;102329.84;4919697;28;45493;-73
2023/03/01 04:32:34;;;;;;;;;31.67;24.00;;;;;0.48;52.48;102326.97;4928547;28;44800;-72
2023/03/01 04:35:00;;;;;;;;;25.00;23.00;;;;;0.51;52.52;102329.84;4919867;28;46272;-72
2023/03/01 04:37:26;;;;;;;;;26.33;23.67;;;;;0.52;52.22;102330.75;4904515;28;45348;-72
2023/03/01 04:39:51;;;;;;;;;31.33;26.33;;;;;0.52;52.78;102333.34;4923222;28;45407;-72
2023/03/01 04:42:17;;;;;;;;;37.67;28.00;;;;;0.48;53.55;102320.81;4931578;28;45184;-72
2023/03/01 04:44:43;;;;;;;;;36.67;30.33;;;;;0.48;53.43;102326.97;4922704;28;45491;-72
2023/03/01 04:47:09;;;;;;;;;34.00;29.33;;;;;0.37;52.99;102293.88;4925208;28;45336;-72
2023/03/01 04:49:34;;;;;;;;;30.67;24.33;;;;;0.41;53.11;102317.69;4922504;28;45321;-72
2023/03/01 04:52:01;;;;;;;;;36.00;32.67;;;;;0.40;54.52;102322.75;4926073;28;47910;-72
2023/03/01 04:54:27;;;;;;;;;32.67;26.00;;;;;0.38;52.98;102307.00;4923052;28;45462;-72
2023/03/01 04:56:54;;;;;;;;;33.00;29.00;;;;;0.38;53.83;102314.81;4932698;28;45257;-72
2023/03/01 04:59:22;;;;;;;;;38.00;27.00;;;;;0.21;53.81;102278.59;4930222;28;45508;-72
2023/03/01 05:01:48;;;;;;;;;31.33;28.00;;;;;0.41;53.69;102307.28;4915260;28;46605;-72
2023/03/01 05:04:13;;;;;;;;;31.67;25.67;;;;;0.33;52.97;102299.56;4932726;28;47651;-72
2023/03/01 05:06:39;;;;;;;;;26.00;20.67;;;;;0.35;52.84;102298.94;4910022;28;45317;-72
2023/03/01 05:09:05;;;;;;;;;32.33;27.00;;;;;0.42;53.11;102324.72;4931418;28;45272;-72
2023/03/01 05:11:33;;;;;;;;;35.67;29.00;;;;;0.40;53.19;102313.25;4920641;28;45603;-72
2023/03/01 05:13:59;;;;;;;;;28.67;23.33;;;;;0.40;52.94;102315.88;4928981;28;46367;-72
2023/03/01 05:16:24;;;;;;;;;26.67;25.67;;;;;0.38;53.36;102313.91;4925731;28;45272;-72
2023/03/01 05:18:52;;;;;;;;;32.00;28.33;;;;;0.30;53.05;102302.81;4931997;28;45469;-72
2023/03/01 05:21:17;;;;;;;;;32.33;28.33;;;;;0.43;53.60;102323.03;4925029;28;45475;-72
2023/03/01 05:23:44;;;;;;;;;26.33;26.33;;;;;0.40;52.95;102321.06;4927690;28;46119;-72
2023/03/01 05:26:09;;;;;;;;;34.00;27.00;;;;;0.27;53.51;102297.34;4910026;28;45487;-72
2023/03/01 05:28:35;;;;;;;;;31.00;28.67;;;;;0.40;53.81;102318.47;4927778;28;45497;-73
2023/03/01 05:31:00;;;;;;;;;30.67;28.67;;;;;0.39;52.53;102319.25;4924823;28;45447;-72
2023/03/01 05:33:26;;;;;;;;;41.33;31.67;;;;;0.39;53.17;102310.50;4915282;28;48419;-72
2023/03/01 05:35:53;;;;;;;;;31.67;28.00;;;;;0.37;52.81;102309.50;4926320;28;45257;-72
2023/03/01 05:38:19;;;;;;;;;39.67;32.33;;;;;0.38;52.77;102309.59;4933545;28;45354;-72
2023/03/01 05:40:47;;;;;;;;;31.33;28.00;;;;;0.36;53.17;102310.25;4929078;28;45580;-72
2023/03/01 05:43:15;;;;;;;;;37.67;33.00;;;;;0.34;53.24;102304.91;4915833;28;46740;-72
2023/03/01 05:45:42;;;;;;;;;32.00;24.67;;;;;0.30;54.15;102302.81;4924349;28;45511;-72
2023/03/01 05:48:09;;;;;;;;;41.67;32.67;;;;;0.28;53.88;102304.38;4926397;28;45205;-72
2023/03/01 05:50:37;;;;;;;;;45.33;35.00;;;;;0.27;55.14;102312.94;4919001;28;45470;-73
2023/03/01 05:53:09;;;;;;;;;45.33;35.33;;;;;0.19;53.95;102285.31;4922709;28;45116;-72
2023/03/01 05:55:35;;;;;;;;;41.33;37.33;;;;;0.30;54.51;102304.50;4920645;28;45336;-72
2023/03/01 05:58:02;;;;;;;;;46.67;38.67;;;;;0.17;54.36;102285.22;4924900;28;45364;-72
2023/03/01 06:00:29;;;;;;;;;35.33;35.00;;;;;0.26;54.43;102310.22;4900394;28;45486;-72
2023/03/01 06:02:56;;;;;;;;;36.33;32.67;;;;;0.22;54.71;102304.75;4923545;28;45204;-72
2023/03/01 06:05:22;;;;;;;;;58.67;37.00;;;;;0.20;53.75;102300.19;4922801;28;45297;-72
2023/03/01 06:07:48;;;;;;;;;43.33;35.67;;;;;0.21;54.58;102307.19;4923155;28;45329;-72
2023/03/01 06:10:14;;;;;;;;;45.67;41.33;;;;;0.19;56.21;102309.63;4920655;28;45492;-72
2023/03/01 06:12:41;;;;;;;;;50.67;40.00;;;;;0.18;54.47;102310.44;4927069;28;45332;-72
2023/03/01 06:15:09;;;;;;;;;40.00;37.00;;;;;0.15;55.14;102306.66;4907667;28;45498;-72
2023/03/01 06:17:38;;;;;;;;;40.00;36.33;;;;;0.14;54.99;102304.78;4912112;28;45282;-72
2023/03/01 06:20:06;;;;;;;;;50.67;42.00;;;;;0.12;55.32;102299.47;4920817;28;45328;-72
2023/03/01 06:22:31;;;;;;;;;44.33;38.00;;;;;0.04;54.42;102276.16;4925609;28;46476;-72
2023/03/01 06:24:57;;;;;;;;;58.33;38.67;;;;;0.11;55.09;102287.28;4920543;28;45494;-74
2023/03/01 06:27:22;;;;;;;;;55.33;47.33;;;;;-0.01;55.81;102257.53;4931325;28;47920;-73
2023/03/01 06:29:48;;;;;;;;;48.00;41.33;;;;;-0.02;55.31;102261.84;4905028;28;45621;-73
2023/03/01 06:32:14;;;;;;;;;38.33;33.00;;;;;0.10;55.83;102282.81;4932529;28;45299;-74
2023/03/01 06:34:39;;;;;;;;;51.00;41.67;;;;;-0.03;54.27;102265.22;4924626;28;45385;-74
2023/03/01 06:37:05;;;;;;;;;52.67;42.67;;;;;0.06;56.35;102285.94;4916422;28;45274;-74
2023/03/01 06:39:31;;;;;;;;;49.33;42.00;;;;;0.06;56.13;102285.94;4924218;28;47450;-73
2023/03/01 06:41:56;;;;;;;;;46.00;41.33;;;;;-0.01;55.99;102263.66;4906563;28;46651;-74
2023/03/01 06:44:21;;;;;;;;;45.67;40.00;;;;;0.06;56.26;102282.44;4920205;28;45169;-72
2023/03/01 06:46:47;;;;;;;;;57.33;40.67;;;;;0.06;55.54;102290.22;4925131;28;46206;-73
2023/03/01 06:49:12;;;;;;;;;57.67;44.67;;;;;0.05;55.42;102275.38;4920989;28;45273;-72
2023/03/01 06:51:38;;;;;;;;;41.33;38.00;;;;;0.05;55.60;102281.50;4921842;28;47132;-72
2023/03/01 06:54:04;;;;;;;;;41.33;35.00;;;;;0.04;55.10;102277.06;4905798;28;45739;-72
2023/03/01 06:56:30;;;;;;;;;52.00;43.67;;;;;-0.01;54.80;102263.66;4903714;28;45459;-73
2023/03/01 06:58:55;;;;;;;;;46.67;43.67;;;;;0.06;55.70;102272.94;4919150;28;45659;-72
2023/03/01 07:01:21;;;;;;;;;51.67;42.00;;;;;-0.01;55.37;102258.44;4906486;28;45630;-72
2023/03/01 07:03:46;;;;;;;;;61.67;44.67;;;;;0.10;55.93;102269.81;4918765;28;45356;-74
2023/03/01 07:06:11;;;;;;;;;61.67;47.33;;;;;0.11;56.42;102270.72;4907132;28;45328;-73
2023/03/01 07:08:37;;;;;;;;;63.00;46.33;;;;;0.11;56.52;102269.06;4892949;28;47268;-73
2023/03/01 07:11:03;;;;;;;;;50.33;40.67;;;;;-0.13;55.13;102220.06;4912586;28;46138;-73
2023/03/01 07:13:29;;;;;;;;;46.00;42.33;;;;;0.06;56.48;102251.22;4913650;28;45419;-72
2023/03/01 07:15:54;;;;;;;;;54.33;45.00;;;;;0.17;55.06;102272.22;4911511;28;45325;-72
2023/03/01 07:18:19;;;;;;;;;42.00;30.33;;;;;0.14;55.41;102252.81;4921309;28;45416;-72
2023/03/01 07:20:45;;;;;;;;;60.33;47.33;;;;;0.19;55.62;102257.63;4901164;28;45118;-72
2023/03/01 07:23:10;;;;;;;;;52.67;42.67;;;;;0.26;55.68;102269.53;4896115;28;45421;-73
2023/03/01 07:25:35;;;;;;;;;66.33;45.33;;;;;0.24;57.09;102262.34;4903642;28;46045;-72
2023/03/01 07:28:01;;;;;;;;;61.33;42.33;;;;;0.29;55.51;102258.47;4913426;28;45254;-73
2023/03/01 07:30:28;;;;;;;;;54.00;44.67;;;;;0.36;56.17;102268.63;4905440;28;45582;-73
2023/03/01 07:32:57;;;;;;;;;53.00;43.33;;;;;0.43;56.08;102269.31;4914603;28;45347;-72
2023/03/01 07:35:24;;;;;;;;;57.67;45.00;;;;;0.52;55.68;102268.31;4905881;28;45356;-72
2023/03/01 07:37:49;;;;;;;;;59.33;46.00;;;;;0.60;55.28;102265.59;4915348;28;45418;-72
2023/03/01 07:40:15;;;;;;;;;56.67;46.00;;;;;0.57;55.36;102252.31;4906086;28;45417;-73
2023/03/01 07:42:40;;;;;;;;;64.33;50.33;;;;;0.75;55.24;102262.50;4916500;28;45307;-72
2023/03/01 07:45:06;;;;;;;;;114.50;91.25;;;;;0.80;54.43;102262.13;4886445;28;45346;-72
2023/03/01 07:47:32;;;;;;;;;47.00;41.33;;;;;0.83;55.43;102259.78;4900444;28;46199;-72
2023/03/01 07:49:57;;;;;;;;;57.00;43.00;;;;;0.85;54.46;102258.25;4908347;28;45267;-72
2023/03/01 07:52:23;;;;;;;;;65.00;45.33;;;;;0.78;55.39;102241.94;4918718;28;45245;-73
2023/03/01 07:54:48;;;;;;;;;52.33;44.67;;;;;0.90;54.88;102250.84;4910109;28;44755;-72
2023/03/01 07:57:13;;;;;;;;;55.33;41.33;;;;;0.90;55.32;102250.84;4910780;28;47676;-73
2023/03/01 07:59:39;;;;;;;;;47.33;41.33;;;;;1.01;54.90;102263.09;4905484;28;45771;-72
2023/03/01 08:02:05;;;;;;;;;63.33;48.00;;;;;0.99;55.06;102243.81;4920822;28;44927;-72
2023/03/01 08:04:31;;;;;;;;;57.00;44.33;;;;;1.10;54.43;102269.09;4911759;28;45392;-73
2023/03/01 08:06:56;;;;;;;;;49.00;42.00;;;;;1.26;54.83;102273.91;4891223;28;45379;-73
2023/03/01 08:09:22;;;;;;;;;45.67;41.67;;;;;1.35;53.85;102268.56;4914010;28;46418;-72
2023/03/01 08:11:47;;;;;;;;;51.33;43.33;;;;;1.34;53.92;102249.44;4911302;28;45372;-73
2023/03/01 08:14:12;;;;;;;;;61.67;44.33;;;;;1.48;54.36;102260.09;4912827;28;46276;-73
2023/03/01 08:16:38;;;;;;;;;61.00;43.33;;;;;1.60;54.44;102263.75;4916051;28;45558;-74
2023/03/01 08:19:05;;;;;;;;;53.33;44.00;;;;;1.61;54.18;102252.53;4917062;28;45401;-74
2023/03/01 08:21:31;;;;;;;;;57.67;45.67;;;;;1.68;53.95;102254.88;4904570;28;45373;-73
2023/03/01 08:23:57;;;;;;;;;49.33;41.00;;;;;1.72;53.68;102249.13;4915894;28;44800;-73
2023/03/01 08:26:22;;;;;;;;;57.67;45.67;;;;;1.85;53.89;102251.06;4908340;28;45471;-73
2023/03/01 08:28:49;;;;;;;;;53.00;39.67;;;;;1.89;53.34;102242.69;4917119;28;45493;-73
2023/03/01 08:31:19;;;;;;;;;39.33;32.67;;;;;2.04;53.37;102257.75;4910325;28;45392;-73
2023/03/01 08:33:50;;;;;;;;;60.00;45.33;;;;;2.06;52.78;102251.00;4918265;28;45246;-72
2023/03/01 08:36:16;;;;;;;;;51.33;43.33;;;;;2.19;53.43;102256.44;4914316;28;45476;-72
2023/03/01 08:38:41;;;;;;;;;53.67;42.00;;;;;2.28;52.83;102253.66;4918095;28;45612;-72
2023/03/01 08:41:06;;;;;;;;;52.67;43.00;;;;;2.22;52.38;102227.97;4896027;28;45403;-72
2023/03/01 08:43:31;;;;;;;;;50.00;44.33;;;;;2.39;52.52;102245.00;4916505;28;45317;-73
2023/03/01 08:45:57;;;;;;;;;44.33;40.00;;;;;2.52;52.88;102252.09;4909160;28;45649;-73
2023/03/01 08:48:22;;;;;;;;;57.33;44.00;;;;;2.56;52.69;102241.13;4919281;28;45248;-72
2023/03/01 08:50:48;;;;;;;;;47.67;40.67;;;;;2.60;52.50;102241.47;4903815;28;45398;-72
2023/03/01 08:53:13;;;;;;;;;55.00;44.33;;;;;2.67;52.65;102229.81;4919088;28;45407;-73
2023/03/01 08:55:38;;;;;;;;;57.00;45.33;;;;;2.68;52.19;102229.03;4907637;28;45538;-73
2023/03/01 08:58:03;;;;;;;;;52.67;40.00;;;;;2.73;52.12;102232.91;4918112;28;51079;-75
2023/03/01 09:00:29;;;;;;;;;53.67;43.00;;;;;2.69;52.26;102220.44;4919875;28;45331;-73
2023/03/01 09:02:54;;;;;;;;;47.67;43.33;;;;;2.79;51.71;102217.72;4916771;28;45392;-70
2023/03/01 09:05:19;;;;;;;;;55.33;44.33;;;;;2.76;51.97;102209.66;4917684;28;45396;-74
2023/03/01 09:07:45;;;;;;;;;59.00;44.00;;;;;2.88;52.19;102201.84;4925505;28;45381;-72
2023/03/01 09:10:11;;;;;;;;;46.33;38.33;;;;;2.94;51.50;102206.66;4918681;28;45349;-72
2023/03/01 09:12:36;;;;;;;;;55.67;37.00;;;;;3.01;51.65;102199.41;4923054;28;45285;-73
2023/03/01 09:15:02;;;;;;;;;53.67;41.67;;;;;3.11;51.34;102196.72;4915399;28;45285;-74
2023/03/01 09:17:27;;;;;;;;;39.00;34.00;;;;;3.17;51.15;102195.38;4908171;28;46994;-74
2023/03/01 09:19:53;;;;;;;;;45.00;42.00;;;;;3.17;50.96;102171.88;4898795;28;45392;-74
2023/03/01 09:22:18;;;;;;;;;41.00;39.00;;;;;3.35;50.55;102189.81;4926245;28;50466;-74
2023/03/01 09:24:44;;;;;;;;;47.67;41.33;;;;;3.34;50.36;102158.38;4924159;28;45340;-74
2023/03/01 09:27:09;;;;;;;;;51.00;39.00;;;;;3.56;50.97;102194.88;4908132;28;47227;-74
2023/03/01 09:29:36;;;;;;;;;55.00;43.00;;;;;3.56;49.32;102174.88;4904575;28;45387;-74
2023/03/01 09:32:01;;;;;;;;;45.33;40.33;;;;;3.67;49.87;102170.44;4928366;28;45376;-73
2023/03/01 09:34:27;;;;;;;;;51.67;42.00;;;;;3.75;50.03;102181.44;4923464;28;45424;-74
2023/03/01 09:36:52;;;;;;;;;55.33;39.67;;;;;3.80;50.02;102167.00;4928806;28;45435;-75
2023/03/01 09:39:20;;;;;;;;;48.33;42.00;;;;;3.71;49.81;102148.03;4918906;28;45416;-76
2023/03/01 09:41:45;;;;;;;;;46.67;39.00;;;;;3.94;49.81;102168.91;4922762;28;45216;-76
2023/03/01 09:44:20;;;;;;;;;27.33;14.33;;;;;3.99;49.35;102164.94;4923991;28;45185;-76
2023/03/01 09:46:46;;;;;;;;;49.00;39.33;;;;;4.04;49.32;102155.72;4934640;28;45663;-75
2023/03/01 09:49:21;;;;;;;;;48.67;40.33;;;;;4.14;48.37;102165.13;4907917;28;45492;-75
2023/03/01 09:52:26;;;;;;;;;52.00;42.00;;;;;4.22;49.64;102173.53;4927480;28;44742;-75
2023/03/01 09:54:55;;;;;;;;;48.75;39.50;;;;;4.22;49.02;102144.75;4910021;28;45517;-75
2023/03/01 09:57:34;;;;;;;;;45.00;38.33;;;;;4.30;48.55;102151.44;4928880;28;46826;-75
2023/03/01 10:00:08;;;;;;;;;46.00;40.25;;;;;4.47;48.13;102163.09;4915566;28;45277;-75
2023/03/01 10:02:44;;;;;;;;;45.25;38.00;;;;;4.53;47.84;102160.91;4922614;28;45614;-75
2023/03/01 10:05:29;;;;;;;;;46.50;38.25;;;;;4.62;47.12;102155.41;4902087;28;44788;-75
2023/03/01 10:08:20;;;;;;;;;48.00;37.00;;;;;4.78;47.49;102146.94;4917083;28;45229;-75
2023/03/01 10:10:47;;;;;;;;;48.00;40.50;;;;;4.84;47.20;102134.25;4907916;28;45617;-76
2023/03/01 10:13:37;;;;;;;;;49.50;41.00;;;;;5.07;47.74;102133.19;4920729;28;45345;-75
2023/03/01 10:16:13;;;;;;;;;52.00;39.75;;;;;5.18;47.36;102140.06;4902200;28;45626;-75
2023/03/01 10:18:40;;;;;;;;;48.25;37.25;;;;;5.01;46.25;102102.25;4914898;28;46126;-75
2023/03/01 10:21:19;;;;;;;;;41.00;36.25;;;;;5.32;46.35;102131.44;4915346;28;45431;-75
2023/03/01 10:23:45;;;;;;;;;54.00;45.00;;;;;5.40;46.58;102131.94;4917708;28;45280;-76
2023/03/01 10:26:20;;;;;;;;;42.25;31.00;;;;;5.51;46.02;102136.16;4893302;28;45454;-75
2023/03/01 10:29:02;;;;;;;;;52.00;40.00;;;;;5.61;45.35;102130.75;4918776;28;46225;-74
2023/03/01 10:31:40;;;;;;;;;44.25;38.25;;;;;5.65;45.27;102112.56;4911099;28;45281;-75
2023/03/01 10:34:21;;;;;;;;;41.75;37.50;;;;;5.90;46.09;102121.22;4914691;28;45462;-76
2023/03/01 10:36:52;;;;;;;;;53.50;39.25;;;;;6.03;45.29;102129.13;4909588;28;45527;-76
2023/03/01 10:39:20;;;;;;;;;53.75;42.25;;;;;6.16;45.76;102128.19;4912939;28;45523;-76
2023/03/01 10:42:18;;;;;;;;;50.25;40.50;;;;;6.25;45.42;102112.13;4911710;28;45434;-76
2023/03/01 10:44:47;;;;;;;;;43.00;37.00;;;;;6.48;44.39;102124.94;4907942;28;45327;-76
2023/03/01 10:47:20;;;;;;;;;47.75;38.75;;;;;6.66;44.42;102124.25;4917996;28;45287;-75
2023/03/01 10:50:00;;;;;;;;;39.25;33.75;;;;;6.83;44.51;102120.03;4909119;28;47166;-76
2023/03/01 10:52:37;;;;;;;;;33.25;29.25;;;;;6.94;44.67;102109.34;4917583;28;45313;-76
2023/03/01 10:55:36;;;;;;;;;46.50;33.25;;;;;7.10;43.59;102116.44;4906969;28;45461;-76
2023/03/01 10:58:19;;;;;;;;;39.00;35.75;;;;;7.32;44.31;102109.81;4919961;28;44769;-76
2023/03/01 11:00:50;;;;;;;;;48.75;39.50;;;;;7.38;43.75;102078.59;4898436;28;46732;-76
2023/03/01 11:03:22;;;;;;;;;43.25;38.00;;;;;7.70;42.54;102112.03;4925036;28;45487;-76
2023/03/01 11:05:57;;;;;;;;;45.50;37.00;;;;;7.87;42.86;102107.72;4915282;28;45417;-76
2023/03/01 11:08:42;;;;;;;;;49.00;36.75;;;;;8.05;41.45;102102.56;4921189;28;45363;-76
2023/03/01 11:11:19;;;;;;;;;41.25;37.00;;;;;8.29;42.67;102096.03;4924409;28;46500;-77
2023/03/01 11:14:12;;;;;;;;;40.00;35.50;;;;;8.46;42.67;102088.16;4928824;28;45415;-77
2023/03/01 11:16:40;;;;;;;;;45.50;37.00;;;;;8.71;41.20;102083.38;4921586;28;45798;-75
2023/03/01 11:19:11;;;;;;;;;42.75;36.25;;;;;9.02;42.37;102092.88;4923091;28;45527;-74
2023/03/01 11:21:50;;;;;;;;;43.25;35.50;;;;;9.20;41.92;102087.63;4922204;28;45256;-74
2023/03/01 11:24:17;;;;;;;;;41.50;34.75;;;;;9.28;39.37;102070.44;4921246;28;45348;-74
2023/03/01 11:26:47;;;;;;;;;41.00;35.00;;;;;9.53;41.15;102077.84;4927190;28;45426;-75